createdAt,value
2022-09-03T00:00:10.249Z,9.27
2022-09-03T00:03:25.566Z,8.60
2022-09-03T00:06:39.499Z,8.18
2022-09-03T00:09:50.105Z,8.30
2022-09-03T00:13:01.273Z,7.93
2022-09-03T00:16:10.914Z,8.00
2022-09-03T00:19:20.154Z,9.57
2022-09-03T00:22:35.210Z,9.10
2022-09-03T00:26:07.853Z,9.45
2022-09-03T00:29:40.476Z,10.88
2022-09-03T00:33:06.663Z,10.63
2022-09-03T00:36:36.548Z,13.38
2022-09-03T00:39:39.863Z,13.52
2022-09-03T00:43:12.535Z,13.27
2022-09-03T00:46:36.759Z,16.63
2022-09-03T00:49:47.375Z,13.90
2022-09-03T00:53:01.398Z,14.82
2022-09-03T00:56:22.087Z,15.73
2022-09-03T01:00:08.895Z,17.95
2022-09-03T01:03:34.976Z,14.82
2022-09-03T01:06:47.945Z,14.40
2022-09-03T01:10:05.047Z,13.82
2022-09-03T01:13:39.987Z,13.05
2022-09-03T01:16:52.098Z,13.65
2022-09-03T01:20:21.037Z,13.13
2022-09-03T01:23:43.198Z,13.23
2022-09-03T01:27:16.991Z,12.93
2022-09-03T01:30:23.492Z,14.77
2022-09-03T01:33:41.934Z,12.85
2022-09-03T01:37:30.776Z,12.20
2022-09-03T01:40:37.532Z,11.30
2022-09-03T01:43:57.966Z,10.75
2022-09-03T01:47:21.215Z,11.70
2022-09-03T01:50:37.829Z,10.65
2022-09-03T01:54:20.897Z,9.95
2022-09-03T01:57:56.618Z,11.20
2022-09-03T02:01:11.142Z,9.63
2022-09-03T02:04:24.004Z,9.32
2022-09-03T02:07:37.270Z,9.45
2022-09-03T02:10:46.288Z,10.50
2022-09-03T02:13:53.892Z,9.13
2022-09-03T02:17:00.601Z,9.40
2022-09-03T02:20:08.130Z,9.30
2022-09-03T02:23:11.889Z,8.25
2022-09-03T02:26:19.130Z,8.73
2022-09-03T02:29:22.616Z,9.33
2022-09-03T02:32:27.690Z,8.90
2022-09-03T02:35:31.380Z,9.30
